Neropolis, Brazil
Current Conditions -  °F | °C
As of 1:23 PM on Saturday 25 Oct 2014 (Local Time) from SBGO Reporting Station
Light Rain Light Rain  
Wind Chill: 70°   Ceiling: 10000
Heat Index: 70°   Visibility: 2.5mi
Dew Point: 66°   Wind: 5mph
Humidity: 88%   Direction: 100°E
Pressure: 30.03"   Gusts: NA
Location:  16.41°S, 49.22°W
Report Text: SBGO 251523Z 10004KT 4000 -RA SCT009 SCT050 OVC100 21/19 Q1017
Loading
Personal Weather Stations






























Interactive Weather Map
Tropical Storm Tracking
New forecast layout! Learn more

10-Day Weather Forecast

Advertisements
Track Severe Weather on mobile